C. Angelo — WCZ5866 — position and weather

sailwx.info

Track history (hours):
 
Tides and Currents Weather Stations Pressure Air Temp Water Temp Dewpoint Dewpoint Depression Visibility Wind Speed Wind Dir Waves Ship Positions

C. Angelo

Owner: G T 110 INC, NEW HAVEN, CT. More information available from US FCC via Universal Licensing System and Coast Guard Vessel Documentation Center.

Last reported at 2015-May-20 13:32 UTC. Time now 2015-May-26 03:46 UTC.
Position N 39°29' W 074°08'.

Length 30 m; draft 4.1 m.

Type: Tug. MMSI: 366988420.

Date/timePositionNaut miles runAvg speedWind from/ knotsBaromVisibWave heightAir tempDewpointWater temp
2015-May-20 13:32N 39°29' W 074°08'9 9.6
2015-May-20 12:33N 39°37' W 074°03'10 9.7
2015-May-20 11:33N 39°46' W 073°57'20 9.9
2015-May-20 09:33N 39°58' W 073°37'10 9.8
2015-May-20 08:33N 40°05' W 073°28'10 9.8
2015-May-20 07:33N 40°11' W 073°18'9 9.5
2015-May-20 06:33N 40°17' W 073°09'9 9.4
2015-May-20 05:33N 40°23' W 072°59'10 9.2
2015-May-20 04:28N 40°30' W 072°49'9 9.1
2015-May-20 03:30N 40°35' W 072°40'8 9.0
2015-May-20 02:33N 40°41' W 072°32'9 9.1
2015-May-20 01:33N 40°46' W 072°22'9 9.4
2015-May-20 00:33N 40°51' W 072°11'10 9.6
2015-May-19 23:33N 40°55' W 071°59'10 9.8
2015-May-19 22:33N 40°59' W 071°48'10 9.9
2015-May-19 21:33N 41°04' W 071°37'9 8.9
2015-May-19 20:33N 41°10' W 071°28'9 9.3
2015-May-19 19:33N 41°20' W 071°26'9 8.7
2015-May-19 18:33N 41°28' W 071°22'11 9.0
2015-May-19 17:20N 41°38' W 071°18'6 7.1
2015-May-19 16:33N 41°43' W 071°21'5 5.0
2015-May-19 15:33N 41°48' W 071°24'0 0.0
2015-May-19 12:20N 41°48' W 071°23'0 0.1
2015-May-19 11:33N 41°48' W 071°23'0 0.0
2015-May-19 10:33N 41°48' W 071°23'0 0.0
2015-May-19 09:33N 41°48' W 071°23'0 0.0
2015-May-19 08:33N 41°48' W 071°23'0 0.0
2015-May-19 07:33N 41°48' W 071°23'0 0.0
2015-May-19 06:33N 41°48' W 071°23'0 0.0
2015-May-19 05:33N 41°48' W 071°24'0 0.0
2015-May-19 04:32N 41°48' W 071°23'0 0.1
2015-May-19 03:33N 41°48' W 071°23'0 0.0
2015-May-19 02:33N 41°48' W 071°23'0 0.0
2015-May-19 01:33N 41°48' W 071°23'0 0.0
2015-May-19 00:33N 41°48' W 071°23'0 0.0
2015-May-18 23:33N 41°48' W 071°23'0 0.0
2015-May-18 22:30N 41°48' W 071°23'0 0.0
2015-May-18 21:32N 41°48' W 071°23'0 0.0
2015-May-18 20:33N 41°48' W 071°23'0 0.0
2015-May-18 19:18N 41°48' W 071°23'0 0.1
2015-May-18 18:33N 41°48' W 071°23'0 0.0
2015-May-18 12:21N 41°48' W 071°23'0 0.0
2015-May-18 08:15N 41°48' W 071°23'0 0.0
2015-May-18 04:06N 41°48' W 071°23'0 0.0
2015-May-18 03:30N 41°48' W 071°23'0 0.0
2015-May-18 02:30N 41°48' W 071°23'0 0.0
2015-May-18 01:33N 41°48' W 071°23'0 0.0
2015-May-17 22:10N 41°48' W 071°23'0 0.0
2015-May-17 21:27N 41°48' W 071°23'0 0.0
2015-May-17 18:21N 41°48' W 071°23'0 0.0
2015-May-17 17:24N 41°48' W 071°23'0 0.0
2015-May-17 16:33N 41°48' W 071°23'0 0.0
2015-May-17 15:33N 41°48' W 071°23'0 0.0
2015-May-17 14:32N 41°48' W 071°23'0 0.0
2015-May-17 13:33N 41°48' W 071°23'0 0.0
2015-May-17 12:25N 41°48' W 071°23'0 0.0
2015-May-17 11:33N 41°48' W 071°23'0 0.0
2015-May-17 10:33N 41°48' W 071°23'0 0.0
2015-May-17 09:33N 41°48' W 071°23'0 0.0
2015-May-17 08:33N 41°48' W 071°23'0 0.0
2015-May-17 07:33N 41°48' W 071°23'0 0.0
2015-May-17 06:33N 41°48' W 071°23'0 0.0
2015-May-17 05:33N 41°48' W 071°23'0 0.0
2015-May-17 04:33N 41°48' W 071°23'0 0.3
2015-May-17 03:33N 41°48' W 071°23'5 5.0
2015-May-17 02:33N 41°43' W 071°21'6 5.9
2015-May-17 01:33N 41°38' W 071°18'6 6.0
2015-May-17 00:33N 41°32' W 071°20'3 3.3
2015-May-16 23:33N 41°29' W 071°21'7 6.7
2015-May-16 22:33N 41°23' W 071°26'7 6.6
2015-May-16 21:33N 41°17' W 071°28'53 4.6
2015-May-16 10:10N 40°48' W 072°28'4 6.8
2015-May-16 09:33N 40°47' W 072°33'7 6.7
2015-May-16 08:33N 40°44' W 072°41'7 6.7
2015-May-16 07:33N 40°40' W 072°48'6 6.5
2015-May-16 06:33N 40°37' W 072°55'6 6.4
2015-May-16 05:33N 40°32' W 073°01'7 6.7
2015-May-16 04:33N 40°27' W 073°07'7 6.9
2015-May-16 03:33N 40°24' W 073°15'7 7.0
2015-May-16 02:33N 40°19' W 073°21'7 7.0
2015-May-16 01:33N 40°13' W 073°27'7 6.9
2015-May-16 00:33N 40°08' W 073°32'7 7.2
2015-May-15 23:33N 40°02' W 073°39'7 7.2
2015-May-15 22:33N 39°57' W 073°46'7 7.1
2015-May-15 21:33N 39°53' W 073°52'7 7.0
2015-May-15 20:33N 39°47' W 073°57'7 6.9
2015-May-15 19:33N 39°40' W 074°01'7 7.0
2015-May-15 18:33N 39°34' W 074°05'7 6.9
2015-May-15 17:33N 39°28' W 074°09'10 6.7
2015-May-15 16:08N 39°19' W 074°14'18 6.7
2015-May-15 13:30N 39°04' W 074°25'8 6.7
2015-May-15 12:16N 38°56' W 074°30'6 6.7
2015-May-15 11:23N 38°51' W 074°34'5 6.5
2015-May-15 10:32N 38°46' W 074°37'7 6.7
2015-May-15 09:33N 38°40' W 074°39'7 6.7
2015-May-15 08:27N 38°33' W 074°41'6 6.6
2015-May-15 07:33N 38°27' W 074°44'6 6.5
2015-May-15 06:33N 38°21' W 074°46'7 6.3
2015-May-15 05:27N 38°15' W 074°51'12 6.2
2015-May-15 03:29N 38°03' W 074°57'7 6.4
2015-May-15 02:22N 37°57' W 074°59'209 5.5
2015-May-13 12:29N 34°34' W 076°02'8 7.2
2015-May-13 11:21N 34°28' W 076°09'38 7.6
2015-May-13 06:22N 34°03' W 076°44'  
Track history (hours):
 
Tides and Currents Weather Stations Pressure Air Temp Water Temp Dewpoint Dewpoint Depression Visibility Wind Speed Wind Dir Waves Ship Positions

C. Angelo

Owner: G T 110 INC, NEW HAVEN, CT. More information available from US FCC via Universal Licensing System and Coast Guard Vessel Documentation Center.

Last reported at 2015-May-20 13:32 UTC. Time now 2015-May-26 03:46 UTC.
Position N 39°29' W 074°08'.

Length 30 m; draft 4.1 m.

Type: Tug. MMSI: 366988420.

Date/timePositionNaut miles runAvg speedWind from/ knotsBaromVisibWave heightAir tempDewpointWater temp
2015-May-20 13:32N 39°29' W 074°08'9 9.6
2015-May-20 12:33N 39°37' W 074°03'10 9.7
2015-May-20 11:33N 39°46' W 073°57'20 9.9
2015-May-20 09:33N 39°58' W 073°37'10 9.8
2015-May-20 08:33N 40°05' W 073°28'10 9.8
2015-May-20 07:33N 40°11' W 073°18'9 9.5
2015-May-20 06:33N 40°17' W 073°09'9 9.4
2015-May-20 05:33N 40°23' W 072°59'10 9.2
2015-May-20 04:28N 40°30' W 072°49'9 9.1
2015-May-20 03:30N 40°35' W 072°40'8 9.0
2015-May-20 02:33N 40°41' W 072°32'9 9.1
2015-May-20 01:33N 40°46' W 072°22'9 9.4
2015-May-20 00:33N 40°51' W 072°11'10 9.6
2015-May-19 23:33N 40°55' W 071°59'10 9.8
2015-May-19 22:33N 40°59' W 071°48'10 9.9
2015-May-19 21:33N 41°04' W 071°37'9 8.9
2015-May-19 20:33N 41°10' W 071°28'9 9.3
2015-May-19 19:33N 41°20' W 071°26'9 8.7
2015-May-19 18:33N 41°28' W 071°22'11 9.0
2015-May-19 17:20N 41°38' W 071°18'6 7.1
2015-May-19 16:33N 41°43' W 071°21'5 5.0
2015-May-19 15:33N 41°48' W 071°24'0 0.0
2015-May-19 12:20N 41°48' W 071°23'0 0.1
2015-May-19 11:33N 41°48' W 071°23'0 0.0
2015-May-19 10:33N 41°48' W 071°23'0 0.0
2015-May-19 09:33N 41°48' W 071°23'0 0.0
2015-May-19 08:33N 41°48' W 071°23'0 0.0
2015-May-19 07:33N 41°48' W 071°23'0 0.0
2015-May-19 06:33N 41°48' W 071°23'0 0.0
2015-May-19 05:33N 41°48' W 071°24'0 0.0
2015-May-19 04:32N 41°48' W 071°23'0 0.1
2015-May-19 03:33N 41°48' W 071°23'0 0.0
2015-May-19 02:33N 41°48' W 071°23'0 0.0
2015-May-19 01:33N 41°48' W 071°23'0 0.0
2015-May-19 00:33N 41°48' W 071°23'0 0.0
2015-May-18 23:33N 41°48' W 071°23'0 0.0
2015-May-18 22:30N 41°48' W 071°23'0 0.0
2015-May-18 21:32N 41°48' W 071°23'0 0.0
2015-May-18 20:33N 41°48' W 071°23'0 0.0
2015-May-18 19:18N 41°48' W 071°23'0 0.1
2015-May-18 18:33N 41°48' W 071°23'0 0.0
2015-May-18 12:21N 41°48' W 071°23'0 0.0
2015-May-18 08:15N 41°48' W 071°23'0 0.0
2015-May-18 04:06N 41°48' W 071°23'0 0.0
2015-May-18 03:30N 41°48' W 071°23'0 0.0
2015-May-18 02:30N 41°48' W 071°23'0 0.0
2015-May-18 01:33N 41°48' W 071°23'0 0.0
2015-May-17 22:10N 41°48' W 071°23'0 0.0
2015-May-17 21:27N 41°48' W 071°23'0 0.0
2015-May-17 18:21N 41°48' W 071°23'0 0.0
2015-May-17 17:24N 41°48' W 071°23'0 0.0
2015-May-17 16:33N 41°48' W 071°23'0 0.0
2015-May-17 15:33N 41°48' W 071°23'0 0.0
2015-May-17 14:32N 41°48' W 071°23'0 0.0
2015-May-17 13:33N 41°48' W 071°23'0 0.0
2015-May-17 12:25N 41°48' W 071°23'0 0.0
2015-May-17 11:33N 41°48' W 071°23'0 0.0
2015-May-17 10:33N 41°48' W 071°23'0 0.0
2015-May-17 09:33N 41°48' W 071°23'0 0.0
2015-May-17 08:33N 41°48' W 071°23'0 0.0
2015-May-17 07:33N 41°48' W 071°23'0 0.0
2015-May-17 06:33N 41°48' W 071°23'0 0.0
2015-May-17 05:33N 41°48' W 071°23'0 0.0
2015-May-17 04:33N 41°48' W 071°23'0 0.3
2015-May-17 03:33N 41°48' W 071°23'5 5.0
2015-May-17 02:33N 41°43' W 071°21'6 5.9
2015-May-17 01:33N 41°38' W 071°18'6 6.0
2015-May-17 00:33N 41°32' W 071°20'3 3.3
2015-May-16 23:33N 41°29' W 071°21'7 6.7
2015-May-16 22:33N 41°23' W 071°26'7 6.6
2015-May-16 21:33N 41°17' W 071°28'53 4.6
2015-May-16 10:10N 40°48' W 072°28'4 6.8
2015-May-16 09:33N 40°47' W 072°33'7 6.7
2015-May-16 08:33N 40°44' W 072°41'7 6.7
2015-May-16 07:33N 40°40' W 072°48'6 6.5
2015-May-16 06:33N 40°37' W 072°55'6 6.4
2015-May-16 05:33N 40°32' W 073°01'7 6.7
2015-May-16 04:33N 40°27' W 073°07'7 6.9
2015-May-16 03:33N 40°24' W 073°15'7 7.0
2015-May-16 02:33N 40°19' W 073°21'7 7.0
2015-May-16 01:33N 40°13' W 073°27'7 6.9
2015-May-16 00:33N 40°08' W 073°32'7 7.2
2015-May-15 23:33N 40°02' W 073°39'7 7.2
2015-May-15 22:33N 39°57' W 073°46'7 7.1
2015-May-15 21:33N 39°53' W 073°52'7 7.0
2015-May-15 20:33N 39°47' W 073°57'7 6.9
2015-May-15 19:33N 39°40' W 074°01'7 7.0
2015-May-15 18:33N 39°34' W 074°05'7 6.9
2015-May-15 17:33N 39°28' W 074°09'10 6.7
2015-May-15 16:08N 39°19' W 074°14'18 6.7
2015-May-15 13:30N 39°04' W 074°25'8 6.7
2015-May-15 12:16N 38°56' W 074°30'6 6.7
2015-May-15 11:23N 38°51' W 074°34'5 6.5
2015-May-15 10:32N 38°46' W 074°37'7 6.7
2015-May-15 09:33N 38°40' W 074°39'7 6.7
2015-May-15 08:27N 38°33' W 074°41'6 6.6
2015-May-15 07:33N 38°27' W 074°44'6 6.5
2015-May-15 06:33N 38°21' W 074°46'7 6.3
2015-May-15 05:27N 38°15' W 074°51'12 6.2
2015-May-15 03:29N 38°03' W 074°57'7 6.4
2015-May-15 02:22N 37°57' W 074°59'209 5.5
2015-May-13 12:29N 34°34' W 076°02'8 7.2
2015-May-13 11:21N 34°28' W 076°09'38 7.6
2015-May-13 06:22N 34°03' W 076°44'  

Dump ship's entire track history